YAG weather

Fort Frances Municipal Airport
Fort Frances, Ontario, Canada

Public forecast

Using degrees Celsius for public forecast. Weather courtesy of forecast.io.

METAR (pilot weather report)

Closest report is Falls International Airport, 5.5 nm (10.1 km) SSE. Retrieved 2019/05/25 21:55 UTC (43 minutes ago):

KINL 252155Z AUTO 32010KT 10SM FEW034 BKN060 16/09 A2988 RMK AO2 SLP122 T01610089 $

TAF (pilot weather forecast)

Closest forecast is Falls International Airport, 5.5 nm (10.1 km) SSE. Retrieved 2019/05/25 18:33 UTC (4 hours ago):

TAF KINL 251729Z 2518/2618 29009G16KT P6SM VCSH OVC025 FM252100 29009KT P6SM BKN040 FM260100 29005KT P6SM SCT250